ICNDB LIMC-LFMQ
Flight info
| Callsign | ICNDB |
|---|---|
| Flight time | 1h 7m |
| Altitude | 25000 |
| Route | DOGUB6TXNEDED6I/35R NEDED DCT GEKBA DCT ASBOP DCT BORDI DCT PIGOS DCT STP/N0278F180 A3 RUBIT G7 LANKO |
| Aircraft | PC12/L-SDFGRWY/H |
Departure
| Time | 2026-05-07 13:45 |
|---|---|
| Airport | Milan Malpensa International Airport (LIMC) |
Arrival
| Time | 2026-05-07 14:53 |
|---|---|
| Airport | Le Castellet Airport (LFMQ) |
| Time | Latitude | Longitude | Altitude | Speed | Heading |
|---|---|---|---|---|---|
| 2026-05-07 13:19 | 45.63431 | 8.71287 | 737 ft | 0 kts | 349° |
| 2026-05-07 13:28 | 45.63430 | 8.71288 | 737 ft | 1 kts | 349° |
| 2026-05-07 13:28 | 45.63407 | 8.71294 | 737 ft | 4 kts | 349° |
| 2026-05-07 13:28 | 45.63384 | 8.71300 | 737 ft | 4 kts | 356° |
| 2026-05-07 13:28 | 45.63361 | 8.71294 | 737 ft | 4 kts | 49° |
| 2026-05-07 13:29 | 45.63352 | 8.71268 | 737 ft | 1 kts | 79° |
| 2026-05-07 13:29 | 45.63357 | 8.71300 | 737 ft | 4 kts | 79° |
| 2026-05-07 13:29 | 45.63361 | 8.71335 | 737 ft | 2 kts | 79° |
| 2026-05-07 13:29 | 45.63361 | 8.71336 | 737 ft | 0 kts | 79° |
| 2026-05-07 13:34 | 45.63362 | 8.71337 | 737 ft | 1 kts | 79° |
| 2026-05-07 13:34 | 45.63369 | 8.71394 | 737 ft | 12 kts | 80° |
| 2026-05-07 13:35 | 45.63389 | 8.71540 | 737 ft | 18 kts | 80° |
| 2026-05-07 13:35 | 45.63413 | 8.71713 | 737 ft | 17 kts | 80° |
| 2026-05-07 13:35 | 45.63372 | 8.71832 | 737 ft | 18 kts | 172° |
| 2026-05-07 13:35 | 45.63222 | 8.71873 | 737 ft | 22 kts | 169° |
| 2026-05-07 13:36 | 45.63066 | 8.71916 | 737 ft | 23 kts | 168° |
| 2026-05-07 13:36 | 45.62908 | 8.71960 | 737 ft | 27 kts | 170° |
| 2026-05-07 13:36 | 45.62730 | 8.72010 | 737 ft | 27 kts | 169° |
| 2026-05-07 13:36 | 45.62520 | 8.72067 | 737 ft | 31 kts | 168° |
| 2026-05-07 13:37 | 45.62339 | 8.72116 | 737 ft | 24 kts | 169° |
| 2026-05-07 13:37 | 45.62154 | 8.72168 | 738 ft | 28 kts | 169° |
| 2026-05-07 13:37 | 45.61979 | 8.72216 | 738 ft | 29 kts | 169° |
| 2026-05-07 13:37 | 45.61787 | 8.72269 | 738 ft | 26 kts | 169° |
| 2026-05-07 13:38 | 45.61599 | 8.72321 | 738 ft | 28 kts | 168° |
| 2026-05-07 13:38 | 45.61435 | 8.72366 | 738 ft | 15 kts | 173° |
| 2026-05-07 13:38 | 45.61382 | 8.72258 | 738 ft | 19 kts | 259° |
| 2026-05-07 13:38 | 45.61308 | 8.72201 | 738 ft | 18 kts | 168° |
| 2026-05-07 13:39 | 45.61151 | 8.72245 | 738 ft | 25 kts | 168° |
| 2026-05-07 13:39 | 45.60993 | 8.72288 | 738 ft | 23 kts | 168° |
| 2026-05-07 13:39 | 45.60808 | 8.72341 | 738 ft | 31 kts | 169° |
| 2026-05-07 13:39 | 45.60661 | 8.72399 | 738 ft | 19 kts | 133° |
| 2026-05-07 13:40 | 45.60628 | 8.72628 | 738 ft | 29 kts | 95° |
| 2026-05-07 13:40 | 45.60608 | 8.72896 | 738 ft | 26 kts | 96° |
| 2026-05-07 13:40 | 45.60588 | 8.73156 | 738 ft | 24 kts | 91° |
| 2026-05-07 13:40 | 45.60701 | 8.73308 | 738 ft | 28 kts | 22° |
| 2026-05-07 13:41 | 45.60885 | 8.73405 | 738 ft | 26 kts | 3° |
| 2026-05-07 13:41 | 45.61098 | 8.73352 | 738 ft | 32 kts | 348° |
| 2026-05-07 13:41 | 45.61283 | 8.73299 | 738 ft | 26 kts | 348° |
| 2026-05-07 13:41 | 45.61443 | 8.73255 | 738 ft | 12 kts | 353° |
| 2026-05-07 13:42 | 45.61486 | 8.73243 | 738 ft | 10 kts | 349° |
| 2026-05-07 13:42 | 45.61594 | 8.73216 | 738 ft | 14 kts | 17° |
| 2026-05-07 13:42 | 45.61631 | 8.73382 | 738 ft | 16 kts | 81° |
| 2026-05-07 13:42 | 45.61601 | 8.73503 | 738 ft | 15 kts | 122° |
| 2026-05-07 13:43 | 45.61593 | 8.73678 | 736 ft | 18 kts | 78° |
| 2026-05-07 13:43 | 45.61655 | 8.73725 | 735 ft | 9 kts | 349° |
| 2026-05-07 13:43 | 45.61659 | 8.73724 | 735 ft | 0 kts | 349° |
| 2026-05-07 13:44 | 45.61813 | 8.73682 | 736 ft | 51 kts | 350° |
| 2026-05-07 13:45 | 45.62339 | 8.73541 | 746 ft | 99 kts | 346° |
| 2026-05-07 13:45 | 45.63087 | 8.73354 | 943 ft | 118 kts | 348° |
| 2026-05-07 13:45 | 45.63966 | 8.73127 | 1241 ft | 140 kts | 351° |
| 2026-05-07 13:45 | 45.64960 | 8.73036 | 1883 ft | 139 kts | 357° |
| 2026-05-07 13:46 | 45.65892 | 8.72984 | 2594 ft | 133 kts | 356° |
| 2026-05-07 13:46 | 45.66831 | 8.72913 | 3170 ft | 135 kts | 356° |
| 2026-05-07 13:46 | 45.67812 | 8.72836 | 3623 ft | 149 kts | 357° |
| 2026-05-07 13:46 | 45.68849 | 8.72765 | 4277 ft | 149 kts | 356° |
| 2026-05-07 13:47 | 45.69906 | 8.72685 | 4920 ft | 152 kts | 356° |
| 2026-05-07 13:47 | 45.70957 | 8.72591 | 5593 ft | 151 kts | 352° |
| 2026-05-07 13:47 | 45.71830 | 8.71848 | 6258 ft | 151 kts | 301° |
| 2026-05-07 13:47 | 45.72039 | 8.70406 | 6902 ft | 151 kts | 265° |
| 2026-05-07 13:48 | 45.71957 | 8.68922 | 7542 ft | 152 kts | 265° |
| 2026-05-07 13:48 | 45.71946 | 8.68690 | 7647 ft | 152 kts | 266° |
| 2026-05-07 13:48 | 45.71942 | 8.68623 | 7680 ft | 152 kts | 266° |
| 2026-05-07 13:49 | 45.71865 | 8.67116 | 8343 ft | 153 kts | 265° |
| 2026-05-07 13:49 | 45.71787 | 8.65560 | 9046 ft | 153 kts | 266° |
| 2026-05-07 13:49 | 45.71711 | 8.64066 | 9752 ft | 153 kts | 266° |
| 2026-05-07 13:49 | 45.71613 | 8.62542 | 10399 ft | 155 kts | 256° |
| 2026-05-07 13:50 | 45.70884 | 8.61441 | 11044 ft | 161 kts | 206° |
| 2026-05-07 13:50 | 45.69811 | 8.60937 | 11687 ft | 163 kts | 201° |
| 2026-05-07 13:50 | 45.68732 | 8.60407 | 12370 ft | 164 kts | 202° |
| 2026-05-07 13:50 | 45.67643 | 8.59883 | 13043 ft | 166 kts | 201° |
| 2026-05-07 13:51 | 45.66543 | 8.59361 | 13700 ft | 167 kts | 202° |
| 2026-05-07 13:51 | 45.65435 | 8.58836 | 14281 ft | 168 kts | 202° |
| 2026-05-07 13:51 | 45.64321 | 8.58308 | 14857 ft | 169 kts | 203° |
| 2026-05-07 13:51 | 45.63219 | 8.57785 | 15449 ft | 170 kts | 203° |
| 2026-05-07 13:52 | 45.62092 | 8.57252 | 16031 ft | 171 kts | 203° |
| 2026-05-07 13:52 | 45.60956 | 8.56713 | 16619 ft | 173 kts | 203° |
| 2026-05-07 13:52 | 45.59817 | 8.56136 | 17222 ft | 174 kts | 206° |
| 2026-05-07 13:52 | 45.58682 | 8.55519 | 17827 ft | 175 kts | 205° |
| 2026-05-07 13:53 | 45.57531 | 8.54904 | 18410 ft | 177 kts | 205° |
| 2026-05-07 13:53 | 45.56369 | 8.54290 | 18937 ft | 178 kts | 205° |
| 2026-05-07 13:53 | 45.55200 | 8.53672 | 19471 ft | 180 kts | 205° |
| 2026-05-07 13:53 | 45.54024 | 8.53052 | 20013 ft | 181 kts | 206° |
| 2026-05-07 13:54 | 45.52840 | 8.52427 | 20551 ft | 182 kts | 206° |
| 2026-05-07 13:54 | 45.51637 | 8.51792 | 21093 ft | 184 kts | 206° |
| 2026-05-07 13:54 | 45.50439 | 8.51160 | 21622 ft | 185 kts | 206° |
| 2026-05-07 13:54 | 45.49240 | 8.50528 | 22149 ft | 187 kts | 206° |
| 2026-05-07 13:55 | 45.48018 | 8.49884 | 22683 ft | 188 kts | 206° |
| 2026-05-07 13:55 | 45.46783 | 8.49235 | 23224 ft | 189 kts | 206° |
| 2026-05-07 13:55 | 45.45546 | 8.48584 | 23745 ft | 189 kts | 207° |
| 2026-05-07 13:55 | 45.44319 | 8.47940 | 24265 ft | 186 kts | 207° |
| 2026-05-07 13:56 | 45.43106 | 8.47303 | 24740 ft | 186 kts | 208° |
| 2026-05-07 13:56 | 45.41864 | 8.46645 | 25011 ft | 198 kts | 208° |
| 2026-05-07 13:56 | 45.40492 | 8.45909 | 25005 ft | 222 kts | 207° |
| 2026-05-07 13:56 | 45.38978 | 8.45113 | 25008 ft | 241 kts | 206° |
| 2026-05-07 13:57 | 45.37358 | 8.44269 | 25006 ft | 255 kts | 206° |
| 2026-05-07 13:57 | 45.35661 | 8.43384 | 24980 ft | 264 kts | 206° |
| 2026-05-07 13:57 | 45.33912 | 8.42469 | 24979 ft | 270 kts | 206° |
| 2026-05-07 13:57 | 45.32142 | 8.41544 | 24976 ft | 272 kts | 206° |
| 2026-05-07 13:58 | 45.30392 | 8.40631 | 24976 ft | 270 kts | 206° |
| 2026-05-07 13:58 | 45.28635 | 8.39712 | 24977 ft | 268 kts | 206° |
| 2026-05-07 13:58 | 45.26883 | 8.38795 | 24961 ft | 267 kts | 206° |
| 2026-05-07 13:58 | 45.25140 | 8.37885 | 24962 ft | 266 kts | 206° |
| 2026-05-07 13:59 | 45.23401 | 8.36978 | 24961 ft | 266 kts | 206° |
| 2026-05-07 13:59 | 45.21665 | 8.36072 | 24963 ft | 265 kts | 206° |
| 2026-05-07 13:59 | 45.19931 | 8.35168 | 24963 ft | 265 kts | 206° |
| 2026-05-07 13:59 | 45.18198 | 8.34266 | 24962 ft | 265 kts | 206° |
| 2026-05-07 14:00 | 45.16489 | 8.33376 | 24967 ft | 265 kts | 206° |
| 2026-05-07 14:00 | 45.14756 | 8.32474 | 24964 ft | 265 kts | 206° |
| 2026-05-07 14:00 | 45.13025 | 8.31575 | 24966 ft | 265 kts | 206° |
| 2026-05-07 14:00 | 45.11296 | 8.30676 | 24966 ft | 265 kts | 206° |
| 2026-05-07 14:01 | 45.09565 | 8.29777 | 24963 ft | 265 kts | 206° |
| 2026-05-07 14:01 | 45.07836 | 8.28880 | 24961 ft | 264 kts | 206° |
| 2026-05-07 14:01 | 45.06111 | 8.27986 | 24965 ft | 264 kts | 206° |
| 2026-05-07 14:01 | 45.04384 | 8.27091 | 24965 ft | 264 kts | 206° |
| 2026-05-07 14:02 | 45.02658 | 8.26197 | 24966 ft | 264 kts | 206° |
| 2026-05-07 14:02 | 45.00932 | 8.25304 | 24966 ft | 264 kts | 206° |
| 2026-05-07 14:02 | 44.99201 | 8.24409 | 24963 ft | 264 kts | 206° |
| 2026-05-07 14:02 | 44.97475 | 8.23517 | 24964 ft | 264 kts | 206° |
| 2026-05-07 14:03 | 44.95746 | 8.22623 | 24964 ft | 264 kts | 206° |
| 2026-05-07 14:03 | 44.94018 | 8.21732 | 24963 ft | 264 kts | 206° |
| 2026-05-07 14:03 | 44.92289 | 8.20841 | 24963 ft | 264 kts | 206° |
| 2026-05-07 14:03 | 44.90565 | 8.19952 | 24963 ft | 264 kts | 206° |
| 2026-05-07 14:04 | 44.88837 | 8.19061 | 24962 ft | 264 kts | 206° |
| 2026-05-07 14:04 | 44.87115 | 8.18175 | 24961 ft | 263 kts | 206° |
| 2026-05-07 14:04 | 44.85398 | 8.17291 | 24961 ft | 263 kts | 206° |
| 2026-05-07 14:04 | 44.83682 | 8.16409 | 24961 ft | 262 kts | 206° |
| 2026-05-07 14:05 | 44.81964 | 8.15526 | 24960 ft | 262 kts | 206° |
| 2026-05-07 14:05 | 44.80250 | 8.14646 | 24959 ft | 262 kts | 206° |
| 2026-05-07 14:05 | 44.78533 | 8.13764 | 24960 ft | 263 kts | 206° |
| 2026-05-07 14:05 | 44.76813 | 8.12882 | 24960 ft | 262 kts | 206° |
| 2026-05-07 14:06 | 44.75099 | 8.12003 | 24960 ft | 262 kts | 206° |
| 2026-05-07 14:06 | 44.73392 | 8.11129 | 24960 ft | 262 kts | 206° |
| 2026-05-07 14:06 | 44.71675 | 8.10250 | 24959 ft | 262 kts | 206° |
| 2026-05-07 14:06 | 44.69959 | 8.09372 | 24960 ft | 262 kts | 206° |
| 2026-05-07 14:07 | 44.68250 | 8.08498 | 24973 ft | 262 kts | 206° |
| 2026-05-07 14:07 | 44.66535 | 8.07622 | 24963 ft | 262 kts | 206° |
| 2026-05-07 14:07 | 44.64818 | 8.06746 | 24968 ft | 262 kts | 206° |
| 2026-05-07 14:07 | 44.63104 | 8.05871 | 24961 ft | 262 kts | 206° |
| 2026-05-07 14:08 | 44.61412 | 8.05008 | 24960 ft | 261 kts | 206° |
| 2026-05-07 14:08 | 44.59676 | 8.04123 | 24958 ft | 262 kts | 206° |
| 2026-05-07 14:08 | 44.57965 | 8.03252 | 24964 ft | 261 kts | 206° |
| 2026-05-07 14:08 | 44.56252 | 8.02379 | 24957 ft | 261 kts | 206° |
| 2026-05-07 14:09 | 44.54541 | 8.01509 | 24970 ft | 261 kts | 206° |
| 2026-05-07 14:09 | 44.52831 | 8.00640 | 24962 ft | 262 kts | 206° |
| 2026-05-07 14:09 | 44.51121 | 7.99771 | 24967 ft | 262 kts | 206° |
| 2026-05-07 14:09 | 44.49410 | 7.98902 | 24960 ft | 261 kts | 206° |
| 2026-05-07 14:10 | 44.47721 | 7.98045 | 24961 ft | 261 kts | 206° |
| 2026-05-07 14:10 | 44.46015 | 7.97181 | 24969 ft | 261 kts | 206° |
| 2026-05-07 14:10 | 44.44285 | 7.96303 | 24966 ft | 262 kts | 206° |
| 2026-05-07 14:10 | 44.42591 | 7.95444 | 24971 ft | 262 kts | 205° |
| 2026-05-07 14:11 | 44.40873 | 7.94576 | 24968 ft | 262 kts | 206° |
| 2026-05-07 14:11 | 44.39160 | 7.93710 | 24972 ft | 262 kts | 205° |
| 2026-05-07 14:11 | 44.37444 | 7.92841 | 24969 ft | 262 kts | 205° |
| 2026-05-07 14:11 | 44.35732 | 7.91976 | 24973 ft | 262 kts | 205° |
| 2026-05-07 14:12 | 44.34011 | 7.91108 | 24959 ft | 262 kts | 205° |
| 2026-05-07 14:12 | 44.32296 | 7.90243 | 24965 ft | 262 kts | 205° |
| 2026-05-07 14:12 | 44.31139 | 7.89659 | 24968 ft | 262 kts | 205° |
| 2026-05-07 14:12 | 44.29423 | 7.88793 | 24977 ft | 262 kts | 205° |
| 2026-05-07 14:13 | 44.27732 | 7.87942 | 24971 ft | 262 kts | 205° |
| 2026-05-07 14:13 | 44.26022 | 7.87082 | 24976 ft | 262 kts | 205° |
| 2026-05-07 14:13 | 44.24305 | 7.86216 | 24976 ft | 262 kts | 205° |
| 2026-05-07 14:13 | 44.22593 | 7.85356 | 24982 ft | 261 kts | 205° |
| 2026-05-07 14:14 | 44.20883 | 7.84497 | 24974 ft | 262 kts | 205° |
| 2026-05-07 14:14 | 44.19171 | 7.83637 | 24982 ft | 262 kts | 205° |
| 2026-05-07 14:14 | 44.17454 | 7.82775 | 24980 ft | 262 kts | 205° |
| 2026-05-07 14:14 | 44.15740 | 7.81915 | 24983 ft | 262 kts | 205° |
| 2026-05-07 14:15 | 44.14031 | 7.81060 | 24976 ft | 260 kts | 205° |
| 2026-05-07 14:15 | 44.12332 | 7.80208 | 24985 ft | 260 kts | 205° |
| 2026-05-07 14:15 | 44.10630 | 7.79355 | 24977 ft | 259 kts | 205° |
| 2026-05-07 14:15 | 44.08932 | 7.78506 | 24979 ft | 259 kts | 205° |
| 2026-05-07 14:16 | 44.07237 | 7.77659 | 24977 ft | 258 kts | 205° |
| 2026-05-07 14:16 | 44.05551 | 7.76817 | 24982 ft | 257 kts | 205° |
| 2026-05-07 14:16 | 44.03860 | 7.75971 | 24987 ft | 259 kts | 205° |
| 2026-05-07 14:16 | 44.02210 | 7.74991 | 24983 ft | 257 kts | 213° |
| 2026-05-07 14:17 | 44.00710 | 7.73668 | 24988 ft | 256 kts | 219° |
| 2026-05-07 14:17 | 43.99239 | 7.72247 | 24991 ft | 258 kts | 219° |
| 2026-05-07 14:17 | 43.97747 | 7.70829 | 25003 ft | 259 kts | 218° |
| 2026-05-07 14:17 | 43.96263 | 7.69417 | 24981 ft | 256 kts | 219° |
| 2026-05-07 14:18 | 43.94801 | 7.68020 | 24982 ft | 253 kts | 219° |
| 2026-05-07 14:18 | 43.93360 | 7.66643 | 24985 ft | 251 kts | 219° |
| 2026-05-07 14:18 | 43.91918 | 7.65266 | 24989 ft | 252 kts | 219° |
| 2026-05-07 14:18 | 43.90468 | 7.63882 | 24989 ft | 253 kts | 219° |
| 2026-05-07 14:19 | 43.89016 | 7.62499 | 24988 ft | 253 kts | 219° |
| 2026-05-07 14:19 | 43.87566 | 7.61120 | 24993 ft | 253 kts | 219° |
| 2026-05-07 14:19 | 43.86115 | 7.59737 | 24988 ft | 253 kts | 219° |
| 2026-05-07 14:19 | 43.84655 | 7.58348 | 25000 ft | 254 kts | 219° |
| 2026-05-07 14:20 | 43.83218 | 7.56982 | 24989 ft | 253 kts | 218° |
| 2026-05-07 14:20 | 43.81769 | 7.55607 | 24994 ft | 253 kts | 219° |
| 2026-05-07 14:20 | 43.80309 | 7.54218 | 24994 ft | 254 kts | 219° |
| 2026-05-07 14:20 | 43.78825 | 7.52810 | 24994 ft | 256 kts | 218° |
| 2026-05-07 14:21 | 43.77355 | 7.51416 | 24991 ft | 256 kts | 219° |
| 2026-05-07 14:21 | 43.75882 | 7.50021 | 24992 ft | 256 kts | 219° |
| 2026-05-07 14:21 | 43.74415 | 7.48631 | 24994 ft | 256 kts | 219° |
| 2026-05-07 14:21 | 43.72942 | 7.47236 | 24995 ft | 256 kts | 219° |
| 2026-05-07 14:22 | 43.71474 | 7.45847 | 24999 ft | 256 kts | 218° |
| 2026-05-07 14:22 | 43.70006 | 7.44459 | 24999 ft | 256 kts | 218° |
| 2026-05-07 14:22 | 43.68532 | 7.43065 | 25000 ft | 256 kts | 218° |
| 2026-05-07 14:22 | 43.67059 | 7.41675 | 25000 ft | 256 kts | 218° |
| 2026-05-07 14:23 | 43.65588 | 7.40287 | 24996 ft | 256 kts | 218° |
| 2026-05-07 14:23 | 43.64119 | 7.38900 | 24995 ft | 256 kts | 218° |
| 2026-05-07 14:23 | 43.62711 | 7.37414 | 24994 ft | 253 kts | 226° |
| 2026-05-07 14:23 | 43.61500 | 7.35659 | 24995 ft | 251 kts | 233° |
| 2026-05-07 14:24 | 43.60474 | 7.33714 | 24996 ft | 251 kts | 237° |
| 2026-05-07 14:24 | 43.59460 | 7.31755 | 24988 ft | 251 kts | 236° |
| 2026-05-07 14:24 | 43.58456 | 7.29829 | 24975 ft | 250 kts | 236° |
| 2026-05-07 14:24 | 43.57431 | 7.27854 | 24974 ft | 250 kts | 236° |
| 2026-05-07 14:25 | 43.56418 | 7.25899 | 24972 ft | 250 kts | 236° |
| 2026-05-07 14:25 | 43.55409 | 7.23951 | 24972 ft | 250 kts | 236° |
| 2026-05-07 14:25 | 43.54397 | 7.22004 | 24970 ft | 250 kts | 236° |
| 2026-05-07 14:25 | 43.53388 | 7.20062 | 24968 ft | 250 kts | 236° |
| 2026-05-07 14:26 | 43.52375 | 7.18114 | 24966 ft | 250 kts | 236° |
| 2026-05-07 14:26 | 43.51363 | 7.16168 | 24964 ft | 250 kts | 236° |
| 2026-05-07 14:26 | 43.50350 | 7.14223 | 24963 ft | 250 kts | 236° |
| 2026-05-07 14:26 | 43.49340 | 7.12283 | 24962 ft | 250 kts | 236° |
| 2026-05-07 14:27 | 43.48339 | 7.10363 | 24964 ft | 250 kts | 236° |
| 2026-05-07 14:27 | 43.47326 | 7.08422 | 24964 ft | 250 kts | 236° |
| 2026-05-07 14:27 | 43.46299 | 7.06455 | 24964 ft | 250 kts | 236° |
| 2026-05-07 14:27 | 43.45286 | 7.04515 | 24963 ft | 250 kts | 236° |
| 2026-05-07 14:28 | 43.44286 | 7.02601 | 24960 ft | 250 kts | 236° |
| 2026-05-07 14:28 | 43.43272 | 7.00664 | 24961 ft | 250 kts | 236° |
| 2026-05-07 14:28 | 43.42256 | 6.98721 | 24961 ft | 250 kts | 236° |
| 2026-05-07 14:28 | 43.41242 | 6.96785 | 24965 ft | 249 kts | 236° |
| 2026-05-07 14:29 | 43.40227 | 6.94849 | 24967 ft | 248 kts | 236° |
| 2026-05-07 14:29 | 43.39217 | 6.92923 | 24968 ft | 248 kts | 236° |
| 2026-05-07 14:29 | 43.38220 | 6.91021 | 24967 ft | 248 kts | 236° |
| 2026-05-07 14:29 | 43.37210 | 6.89098 | 24967 ft | 248 kts | 236° |
| 2026-05-07 14:30 | 43.36199 | 6.87174 | 24965 ft | 248 kts | 236° |
| 2026-05-07 14:30 | 43.35186 | 6.85249 | 24968 ft | 248 kts | 236° |
| 2026-05-07 14:30 | 43.34176 | 6.83328 | 24977 ft | 248 kts | 236° |
| 2026-05-07 14:30 | 43.33163 | 6.81405 | 24977 ft | 249 kts | 236° |
| 2026-05-07 14:31 | 43.32149 | 6.79478 | 24979 ft | 249 kts | 236° |
| 2026-05-07 14:31 | 43.31132 | 6.77550 | 24980 ft | 249 kts | 236° |
| 2026-05-07 14:31 | 43.30115 | 6.75621 | 24940 ft | 251 kts | 236° |
| 2026-05-07 14:31 | 43.29080 | 6.73659 | 24677 ft | 255 kts | 236° |
| 2026-05-07 14:32 | 43.28041 | 6.71691 | 24360 ft | 253 kts | 236° |
| 2026-05-07 14:32 | 43.27010 | 6.69742 | 24036 ft | 252 kts | 236° |
| 2026-05-07 14:32 | 43.25982 | 6.67799 | 23708 ft | 252 kts | 236° |
| 2026-05-07 14:32 | 43.24952 | 6.65852 | 23358 ft | 254 kts | 236° |
| 2026-05-07 14:33 | 43.23922 | 6.63907 | 23004 ft | 256 kts | 235° |
| 2026-05-07 14:33 | 43.22943 | 6.61872 | 22647 ft | 255 kts | 244° |
| 2026-05-07 14:33 | 43.22306 | 6.59595 | 22317 ft | 257 kts | 254° |
| 2026-05-07 14:33 | 43.22013 | 6.57161 | 21981 ft | 261 kts | 265° |
| 2026-05-07 14:34 | 43.22031 | 6.54661 | 21616 ft | 263 kts | 270° |
| 2026-05-07 14:34 | 43.22074 | 6.52143 | 21273 ft | 264 kts | 269° |
| 2026-05-07 14:34 | 43.22106 | 6.49612 | 20922 ft | 266 kts | 269° |
| 2026-05-07 14:34 | 43.22141 | 6.47066 | 20577 ft | 268 kts | 269° |
| 2026-05-07 14:35 | 43.22176 | 6.44500 | 20226 ft | 270 kts | 269° |
| 2026-05-07 14:35 | 43.22213 | 6.41904 | 19877 ft | 273 kts | 269° |
| 2026-05-07 14:35 | 43.22250 | 6.39290 | 19514 ft | 274 kts | 269° |
| 2026-05-07 14:35 | 43.22291 | 6.36671 | 19155 ft | 275 kts | 269° |
| 2026-05-07 14:36 | 43.22331 | 6.34052 | 18792 ft | 274 kts | 269° |
| 2026-05-07 14:36 | 43.22368 | 6.31435 | 18428 ft | 273 kts | 269° |
| 2026-05-07 14:36 | 43.22405 | 6.28822 | 18090 ft | 276 kts | 269° |
| 2026-05-07 14:36 | 43.22442 | 6.26163 | 17715 ft | 279 kts | 269° |
| 2026-05-07 14:37 | 43.22479 | 6.23506 | 17341 ft | 279 kts | 269° |
| 2026-05-07 14:37 | 43.22551 | 6.18186 | 16615 ft | 282 kts | 269° |
| 2026-05-07 14:37 | 43.22586 | 6.15499 | 16234 ft | 281 kts | 269° |
| 2026-05-07 14:38 | 43.22621 | 6.12794 | 15864 ft | 280 kts | 269° |
| 2026-05-07 14:38 | 43.22648 | 6.10174 | 15491 ft | 277 kts | 268° |
| 2026-05-07 14:38 | 43.22669 | 6.07497 | 15130 ft | 276 kts | 268° |
| 2026-05-07 14:38 | 43.22692 | 6.04867 | 14757 ft | 275 kts | 269° |
| 2026-05-07 14:39 | 43.22717 | 6.02240 | 14402 ft | 276 kts | 269° |
| 2026-05-07 14:39 | 43.22898 | 5.99635 | 14037 ft | 271 kts | 276° |
| 2026-05-07 14:39 | 43.23155 | 5.97180 | 13677 ft | 249 kts | 276° |
| 2026-05-07 14:39 | 43.23375 | 5.94907 | 13349 ft | 233 kts | 276° |
| 2026-05-07 14:40 | 43.23582 | 5.92752 | 13050 ft | 224 kts | 276° |
| 2026-05-07 14:40 | 43.23787 | 5.90650 | 12763 ft | 221 kts | 275° |
| 2026-05-07 14:40 | 43.23988 | 5.88610 | 12470 ft | 217 kts | 276° |
| 2026-05-07 14:40 | 43.24190 | 5.86548 | 12181 ft | 214 kts | 275° |
| 2026-05-07 14:41 | 43.24388 | 5.84513 | 11907 ft | 217 kts | 276° |
| 2026-05-07 14:41 | 43.24589 | 5.82452 | 11628 ft | 219 kts | 276° |
| 2026-05-07 14:41 | 43.24790 | 5.80389 | 11341 ft | 217 kts | 276° |
| 2026-05-07 14:41 | 43.24989 | 5.78343 | 11058 ft | 216 kts | 275° |
| 2026-05-07 14:42 | 43.25185 | 5.76310 | 10771 ft | 215 kts | 275° |
| 2026-05-07 14:42 | 43.25382 | 5.74277 | 10489 ft | 214 kts | 276° |
| 2026-05-07 14:42 | 43.25578 | 5.72248 | 10209 ft | 214 kts | 276° |
| 2026-05-07 14:42 | 43.25774 | 5.70221 | 9936 ft | 214 kts | 276° |
| 2026-05-07 14:43 | 43.25968 | 5.68201 | 9630 ft | 212 kts | 276° |
| 2026-05-07 14:43 | 43.26157 | 5.66229 | 9349 ft | 210 kts | 277° |
| 2026-05-07 14:43 | 43.26347 | 5.64245 | 9072 ft | 208 kts | 276° |
| 2026-05-07 14:43 | 43.26536 | 5.62276 | 8798 ft | 208 kts | 276° |
| 2026-05-07 14:44 | 43.26717 | 5.60316 | 8525 ft | 206 kts | 274° |
| 2026-05-07 14:44 | 43.26596 | 5.58363 | 8254 ft | 209 kts | 256° |
| 2026-05-07 14:44 | 43.26254 | 5.56404 | 7982 ft | 208 kts | 256° |
| 2026-05-07 14:44 | 43.25934 | 5.54490 | 7701 ft | 205 kts | 257° |
| 2026-05-07 14:45 | 43.25616 | 5.52587 | 7389 ft | 204 kts | 256° |
| 2026-05-07 14:45 | 43.25384 | 5.50666 | 7057 ft | 204 kts | 272° |
| 2026-05-07 14:45 | 43.25773 | 5.48792 | 6777 ft | 203 kts | 298° |
| 2026-05-07 14:45 | 43.26687 | 5.47352 | 6506 ft | 203 kts | 324° |
| 2026-05-07 14:46 | 43.27970 | 5.46573 | 6250 ft | 202 kts | 346° |
| 2026-05-07 14:46 | 43.28897 | 5.46281 | 6072 ft | 203 kts | 349° |
| 2026-05-07 14:46 | 43.30314 | 5.46350 | 5790 ft | 203 kts | 15° |
| 2026-05-07 14:46 | 43.31584 | 5.47114 | 5518 ft | 193 kts | 27° |
| 2026-05-07 14:47 | 43.32707 | 5.47988 | 5247 ft | 176 kts | 38° |
| 2026-05-07 14:47 | 43.33429 | 5.49278 | 5032 ft | 168 kts | 65° |
| 2026-05-07 14:47 | 43.33666 | 5.50803 | 4996 ft | 163 kts | 90° |
| 2026-05-07 14:47 | 43.33421 | 5.52335 | 5005 ft | 167 kts | 112° |
| 2026-05-07 14:48 | 43.32982 | 5.53816 | 5007 ft | 167 kts | 112° |
| 2026-05-07 14:48 | 43.32556 | 5.55292 | 5004 ft | 166 kts | 112° |
| 2026-05-07 14:48 | 43.32127 | 5.56775 | 4975 ft | 165 kts | 112° |
| 2026-05-07 14:48 | 43.31695 | 5.58256 | 4743 ft | 164 kts | 112° |
| 2026-05-07 14:49 | 43.31267 | 5.59725 | 4492 ft | 167 kts | 112° |
| 2026-05-07 14:49 | 43.30839 | 5.61193 | 4249 ft | 165 kts | 112° |
| 2026-05-07 14:49 | 43.30412 | 5.62661 | 4003 ft | 166 kts | 112° |
| 2026-05-07 14:49 | 43.29983 | 5.64133 | 3754 ft | 166 kts | 113° |
| 2026-05-07 14:50 | 43.29574 | 5.65536 | 3635 ft | 153 kts | 112° |
| 2026-05-07 14:50 | 43.29176 | 5.66904 | 3530 ft | 155 kts | 112° |
| 2026-05-07 14:50 | 43.28776 | 5.68276 | 3416 ft | 149 kts | 112° |
| 2026-05-07 14:50 | 43.28405 | 5.69551 | 3278 ft | 147 kts | 112° |
| 2026-05-07 14:51 | 43.28013 | 5.70892 | 3155 ft | 154 kts | 113° |
| 2026-05-07 14:51 | 43.27628 | 5.72301 | 2958 ft | 165 kts | 110° |
| 2026-05-07 14:51 | 43.27275 | 5.73704 | 2648 ft | 141 kts | 111° |
| 2026-05-07 14:51 | 43.26967 | 5.74900 | 2345 ft | 128 kts | 112° |
| 2026-05-07 14:52 | 43.26615 | 5.75954 | 1992 ft | 117 kts | 119° |
| 2026-05-07 14:52 | 43.26174 | 5.76893 | 1738 ft | 117 kts | 133° |
| 2026-05-07 14:52 | 43.25675 | 5.77767 | 1453 ft | 112 kts | 133° |
| 2026-05-07 14:52 | 43.25256 | 5.78532 | 1411 ft | 83 kts | 126° |
| 2026-05-07 14:53 | 43.25052 | 5.78902 | 1410 ft | 15 kts | 144° |
| 2026-05-07 14:53 | 43.25047 | 5.78920 | 1405 ft | 8 kts | 296° |
| 2026-05-07 14:53 | 43.25103 | 5.78807 | 1409 ft | 12 kts | 308° |
| 2026-05-07 14:53 | 43.25159 | 5.78693 | 1410 ft | 1 kts | 290° |
| 2026-05-07 14:54 | 43.25139 | 5.78660 | 1404 ft | 1 kts | 217° |
| 2026-05-07 14:54 | 43.25108 | 5.78629 | 1408 ft | 6 kts | 214° |
| 2026-05-07 14:54 | 43.25106 | 5.78627 | 1408 ft | 0 kts | 214° |
| 2026-05-07 14:55 | 43.25091 | 5.78606 | 1406 ft | 9 kts | 240° |
| 2026-05-07 14:55 | 43.25114 | 5.78525 | 1413 ft | 10 kts | 298° |
| 2026-05-07 14:55 | 43.25130 | 5.78493 | 1413 ft | 0 kts | 309° |